sensor_id;sensor_type;location;lat;lon;timestamp;pressure;altitude;pressure_sealevel;temperature;humidity
12626;BME280;6378;42.684;23.372;2022-11-21T00:00:16;93878.09;;;11.18;100.00
12626;BME280;6378;42.684;23.372;2022-11-21T00:02:42;93873.56;;;11.36;100.00
12626;BME280;6378;42.684;23.372;2022-11-21T00:05:07;93870.09;;;11.36;100.00
12626;BME280;6378;42.684;23.372;2022-11-21T00:07:33;93876.69;;;11.49;100.00
12626;BME280;6378;42.684;23.372;2022-11-21T00:09:58;93874.81;;;11.56;100.00
12626;BME280;6378;42.684;23.372;2022-11-21T00:12:24;93815.09;;;11.44;100.00
12626;BME280;6378;42.684;23.372;2022-11-21T00:14:49;93842.47;;;11.60;100.00
12626;BME280;6378;42.684;23.372;2022-11-21T00:17:15;93838.28;;;11.69;100.00
12626;BME280;6378;42.684;23.372;2022-11-21T00:19:40;93829.09;;;11.78;100.00
12626;BME280;6378;42.684;23.372;2022-11-21T00:22:05;93828.31;;;11.81;100.00
12626;BME280;6378;42.684;23.372;2022-11-21T00:24:31;93827.56;;;11.77;100.00
12626;BME280;6378;42.684;23.372;2022-11-21T00:26:56;93808.28;;;11.78;100.00
12626;BME280;6378;42.684;23.372;2022-11-21T00:29:22;93796.34;;;11.83;100.00
12626;BME280;6378;42.684;23.372;2022-11-21T00:31:47;93789.84;;;11.91;100.00
12626;BME280;6378;42.684;23.372;2022-11-21T00:34:12;93790.22;;;11.93;100.00
12626;BME280;6378;42.684;23.372;2022-11-21T00:36:38;93780.97;;;11.94;100.00
12626;BME280;6378;42.684;23.372;2022-11-21T00:39:03;93762.09;;;11.87;100.00
12626;BME280;6378;42.684;23.372;2022-11-21T00:41:28;93771.38;;;12.07;100.00
12626;BME280;6378;42.684;23.372;2022-11-21T00:43:54;93752.50;;;12.07;100.00
12626;BME280;6378;42.684;23.372;2022-11-21T00:46:19;93771.72;;;12.12;100.00
12626;BME280;6378;42.684;23.372;2022-11-21T00:48:45;93791.78;;;12.15;100.00
12626;BME280;6378;42.684;23.372;2022-11-21T00:51:10;93802.56;;;12.15;100.00
12626;BME280;6378;42.684;23.372;2022-11-21T00:53:35;93781.00;;;12.11;100.00
12626;BME280;6378;42.684;23.372;2022-11-21T00:56:01;93734.38;;;12.11;100.00
12626;BME280;6378;42.684;23.372;2022-11-21T00:58:26;93787.16;;;12.23;100.00
12626;BME280;6378;42.684;23.372;2022-11-21T01:00:52;93778.28;;;12.15;100.00
12626;BME280;6378;42.684;23.372;2022-11-21T01:03:18;93785.59;;;12.00;100.00
12626;BME280;6378;42.684;23.372;2022-11-21T01:05:43;93772.91;;;12.01;100.00
12626;BME280;6378;42.684;23.372;2022-11-21T01:08:09;93787.53;;;12.00;100.00
12626;BME280;6378;42.684;23.372;2022-11-21T01:10:35;93775.19;;;11.85;100.00
12626;BME280;6378;42.684;23.372;2022-11-21T01:13:00;93775.16;;;11.74;100.00
12626;BME280;6378;42.684;23.372;2022-11-21T01:15:26;93771.69;;;11.73;100.00
12626;BME280;6378;42.684;23.372;2022-11-21T01:17:51;93759.00;;;11.74;100.00
12626;BME280;6378;42.684;23.372;2022-11-21T01:20:17;93760.50;;;11.71;100.00
12626;BME280;6378;42.684;23.372;2022-11-21T01:22:42;93762.47;;;11.75;100.00
12626;BME280;6378;42.684;23.372;2022-11-21T01:25:07;93782.88;;;11.83;100.00
12626;BME280;6378;42.684;23.372;2022-11-21T01:27:33;93747.09;;;11.82;100.00
12626;BME280;6378;42.684;23.372;2022-11-21T01:29:58;93777.47;;;11.76;100.00
12626;BME280;6378;42.684;23.372;2022-11-21T01:32:24;93759.03;;;11.78;100.00
12626;BME280;6378;42.684;23.372;2022-11-21T01:34:49;93723.19;;;11.73;100.00
12626;BME280;6378;42.684;23.372;2022-11-21T01:37:14;93765.19;;;11.82;100.00
12626;BME280;6378;42.684;23.372;2022-11-21T01:39:40;93737.47;;;11.78;100.00
12626;BME280;6378;42.684;23.372;2022-11-21T01:42:05;93727.06;;;11.73;100.00
12626;BME280;6378;42.684;23.372;2022-11-21T01:44:51;93756.31;;;11.74;100.00
12626;BME280;6378;42.684;23.372;2022-11-21T01:47:18;93760.97;;;12.02;100.00
12626;BME280;6378;42.684;23.372;2022-11-21T01:49:44;93760.56;;;11.82;100.00
12626;BME280;6378;42.684;23.372;2022-11-21T01:52:22;93758.19;;;11.70;100.00
12626;BME280;6378;42.684;23.372;2022-11-21T01:55:02;93731.25;;;11.66;100.00
12626;BME280;6378;42.684;23.372;2022-11-21T01:57:39;93727.44;;;11.75;100.00
12626;BME280;6378;42.684;23.372;2022-11-21T02:00:18;93711.22;;;11.57;100.00
12626;BME280;6378;42.684;23.372;2022-11-21T02:02:50;93750.09;;;11.63;100.00
12626;BME280;6378;42.684;23.372;2022-11-21T02:05:21;93741.59;;;11.54;100.00
12626;BME280;6378;42.684;23.372;2022-11-21T02:07:48;93755.09;;;11.64;100.00
12626;BME280;6378;42.684;23.372;2022-11-21T02:10:16;93772.50;;;11.78;100.00
12626;BME280;6378;42.684;23.372;2022-11-21T02:12:48;93760.16;;;11.77;100.00
12626;BME280;6378;42.684;23.372;2022-11-21T02:15:15;93772.47;;;11.74;100.00
12626;BME280;6378;42.684;23.372;2022-11-21T02:17:41;93775.13;;;11.70;100.00
12626;BME280;6378;42.684;23.372;2022-11-21T02:20:09;93780.94;;;11.80;100.00
12626;BME280;6378;42.684;23.372;2022-11-21T02:25:44;93764.72;;;11.58;100.00
12626;BME280;6378;42.684;23.372;2022-11-21T02:28:20;93774.38;;;11.66;100.00
12626;BME280;6378;42.684;23.372;2022-11-21T02:30:48;93763.59;;;11.63;100.00
12626;BME280;6378;42.684;23.372;2022-11-21T02:33:14;93766.66;;;11.58;100.00
12626;BME280;6378;42.684;23.372;2022-11-21T02:35:40;93802.47;;;11.69;100.00
12626;BME280;6378;42.684;23.372;2022-11-21T02:38:08;93775.13;;;11.70;100.00
12626;BME280;6378;42.684;23.372;2022-11-21T02:40:39;93765.47;;;11.55;100.00
12626;BME280;6378;42.684;23.372;2022-11-21T02:43:24;93753.56;;;11.56;100.00
12626;BME280;6378;42.684;23.372;2022-11-21T02:45:51;93743.19;;;11.62;100.00
12626;BME280;6378;42.684;23.372;2022-11-21T02:48:16;93734.28;;;11.54;100.00
12626;BME280;6378;42.684;23.372;2022-11-21T02:50:44;93717.38;;;11.71;100.00
12626;BME280;6378;42.684;23.372;2022-11-21T02:53:15;93707.78;;;11.85;100.00
12626;BME280;6378;42.684;23.372;2022-11-21T02:55:41;93692.00;;;11.83;100.00
12626;BME280;6378;42.684;23.372;2022-11-21T02:58:07;93692.00;;;11.90;100.00
12626;BME280;6378;42.684;23.372;2022-11-21T03:00:36;93681.97;;;12.05;100.00
12626;BME280;6378;42.684;23.372;2022-11-21T03:03:02;93653.84;;;12.13;100.00
12626;BME280;6378;42.684;23.372;2022-11-21T03:05:28;93663.09;;;12.05;100.00
12626;BME280;6378;42.684;23.372;2022-11-21T03:07:53;93656.50;;;12.34;100.00
12626;BME280;6378;42.684;23.372;2022-11-21T03:10:19;93629.34;;;12.84;100.00
12626;BME280;6378;42.684;23.372;2022-11-21T03:12:44;93641.56;;;13.02;100.00
12626;BME280;6378;42.684;23.372;2022-11-21T03:15:12;93664.72;;;13.00;100.00
12626;BME280;6378;42.684;23.372;2022-11-21T03:17:38;93671.69;;;12.97;100.00
12626;BME280;6378;42.684;23.372;2022-11-21T03:20:04;93672.50;;;12.94;100.00
12626;BME280;6378;42.684;23.372;2022-11-21T03:22:30;93658.63;;;12.85;100.00
12626;BME280;6378;42.684;23.372;2022-11-21T03:24:56;93676.03;;;12.77;100.00
12626;BME280;6378;42.684;23.372;2022-11-21T03:27:21;93681.13;;;12.54;100.00
12626;BME280;6378;42.684;23.372;2022-11-21T03:29:47;93653.75;;;12.41;100.00
12626;BME280;6378;42.684;23.372;2022-11-21T03:32:12;93682.63;;;12.66;100.00
12626;BME280;6378;42.684;23.372;2022-11-21T03:34:37;93661.84;;;12.55;100.00
12626;BME280;6378;42.684;23.372;2022-11-21T03:37:03;93677.63;;;12.61;100.00
12626;BME280;6378;42.684;23.372;2022-11-21T03:39:29;93700.75;;;12.65;100.00
12626;BME280;6378;42.684;23.372;2022-11-21T03:41:54;93698.41;;;12.71;100.00
12626;BME280;6378;42.684;23.372;2022-11-21T03:44:20;93686.06;;;12.66;100.00
12626;BME280;6378;42.684;23.372;2022-11-21T03:46:46;93668.72;;;12.67;100.00
12626;BME280;6378;42.684;23.372;2022-11-21T03:49:12;93667.19;;;12.66;100.00
12626;BME280;6378;42.684;23.372;2022-11-21T03:51:38;93674.16;;;12.64;100.00
12626;BME280;6378;42.684;23.372;2022-11-21T03:54:05;93648.75;;;12.43;100.00
12626;BME280;6378;42.684;23.372;2022-11-21T03:56:30;93691.47;;;12.73;100.00
12626;BME280;6378;42.684;23.372;2022-11-21T03:58:56;93703.41;;;12.72;100.00
12626;BME280;6378;42.684;23.372;2022-11-21T04:01:22;93643.34;;;12.50;100.00
12626;BME280;6378;42.684;23.372;2022-11-21T04:03:48;93654.09;;;12.65;100.00
12626;BME280;6378;42.684;23.372;2022-11-21T04:06:16;93662.56;;;12.70;100.00
12626;BME280;6378;42.684;23.372;2022-11-21T04:08:42;93651.00;;;12.63;100.00
12626;BME280;6378;42.684;23.372;2022-11-21T04:11:09;93664.91;;;12.65;100.00
12626;BME280;6378;42.684;23.372;2022-11-21T04:13:34;93662.19;;;12.65;100.00
12626;BME280;6378;42.684;23.372;2022-11-21T04:16:00;93663.34;;;12.64;100.00
12626;BME280;6378;42.684;23.372;2022-11-21T04:18:25;93646.31;;;12.77;100.00
12626;BME280;6378;42.684;23.372;2022-11-21T04:21:02;93616.28;;;12.68;100.00
12626;BME280;6378;42.684;23.372;2022-11-21T04:23:28;93627.84;;;12.69;100.00
12626;BME280;6378;42.684;23.372;2022-11-21T04:25:53;93622.13;;;12.52;100.00
12626;BME280;6378;42.684;23.372;2022-11-21T04:28:19;93644.84;;;12.66;100.00
12626;BME280;6378;42.684;23.372;2022-11-21T04:30:45;93652.94;;;12.66;100.00
12626;BME280;6378;42.684;23.372;2022-11-21T04:33:12;93645.22;;;12.68;100.00
12626;BME280;6378;42.684;23.372;2022-11-21T04:35:39;93641.78;;;12.56;100.00
12626;BME280;6378;42.684;23.372;2022-11-21T04:38:06;93685.69;;;12.75;100.00
12626;BME280;6378;42.684;23.372;2022-11-21T04:40:31;93694.13;;;12.84;100.00
12626;BME280;6378;42.684;23.372;2022-11-21T04:42:57;93663.28;;;12.81;100.00
12626;BME280;6378;42.684;23.372;2022-11-21T04:45:22;93647.66;;;12.23;100.00
12626;BME280;6378;42.684;23.372;2022-11-21T04:47:47;93681.22;;;11.87;100.00
12626;BME280;6378;42.684;23.372;2022-11-21T04:50:15;93683.88;;;11.65;100.00
12626;BME280;6378;42.684;23.372;2022-11-21T04:52:41;93708.13;;;11.58;100.00
12626;BME280;6378;42.684;23.372;2022-11-21T04:55:08;93685.72;;;11.12;100.00
12626;BME280;6378;42.684;23.372;2022-11-21T04:57:34;93699.88;;;10.91;100.00
12626;BME280;6378;42.684;23.372;2022-11-21T05:00:00;93687.56;;;10.79;100.00
12626;BME280;6378;42.684;23.372;2022-11-21T05:02:25;93704.38;;;10.59;100.00
12626;BME280;6378;42.684;23.372;2022-11-21T05:04:50;93717.06;;;10.62;100.00
12626;BME280;6378;42.684;23.372;2022-11-21T05:07:16;93730.84;;;10.53;100.00
12626;BME280;6378;42.684;23.372;2022-11-21T05:09:42;93697.44;;;10.61;100.00
12626;BME280;6378;42.684;23.372;2022-11-21T05:12:10;93731.72;;;10.71;100.00
12626;BME280;6378;42.684;23.372;2022-11-21T05:14:55;93725.47;;;10.57;100.00
12626;BME280;6378;42.684;23.372;2022-11-21T05:17:20;93737.84;;;10.65;100.00
12626;BME280;6378;42.684;23.372;2022-11-21T05:19:46;93773.97;;;10.67;100.00
12626;BME280;6378;42.684;23.372;2022-11-21T05:22:11;93759.34;;;10.61;100.00
12626;BME280;6378;42.684;23.372;2022-11-21T05:24:37;93756.34;;;10.73;100.00
12626;BME280;6378;42.684;23.372;2022-11-21T05:27:03;93738.28;;;10.77;100.00
12626;BME280;6378;42.684;23.372;2022-11-21T05:29:28;93731.69;;;10.64;100.00
12626;BME280;6378;42.684;23.372;2022-11-21T05:31:54;93733.94;;;10.55;100.00
12626;BME280;6378;42.684;23.372;2022-11-21T05:34:19;93741.97;;;10.52;100.00
12626;BME280;6378;42.684;23.372;2022-11-21T05:36:44;93744.72;;;10.59;100.00
12626;BME280;6378;42.684;23.372;2022-11-21T05:39:10;93701.97;;;10.39;100.00
12626;BME280;6378;42.684;23.372;2022-11-21T05:41:35;93752.38;;;10.57;100.00
12626;BME280;6378;42.684;23.372;2022-11-21T05:44:00;93745.81;;;10.47;100.00
12626;BME280;6378;42.684;23.372;2022-11-21T05:46:26;93753.16;;;10.57;100.00
12626;BME280;6378;42.684;23.372;2022-11-21T05:48:52;93774.69;;;10.57;100.00
12626;BME280;6378;42.684;23.372;2022-11-21T05:51:19;93804.72;;;10.66;100.00
12626;BME280;6378;42.684;23.372;2022-11-21T05:53:45;93793.16;;;10.62;100.00
12626;BME280;6378;42.684;23.372;2022-11-21T05:56:13;93777.09;;;10.73;100.00
12626;BME280;6378;42.684;23.372;2022-11-21T05:58:39;93791.66;;;10.65;100.00
12626;BME280;6378;42.684;23.372;2022-11-21T06:01:06;93792.38;;;10.58;100.00
12626;BME280;6378;42.684;23.372;2022-11-21T06:03:34;93798.53;;;10.62;100.00
12626;BME280;6378;42.684;23.372;2022-11-21T06:06:04;93789.44;;;10.81;100.00
12626;BME280;6378;42.684;23.372;2022-11-21T06:08:33;93800.38;;;11.13;100.00
12626;BME280;6378;42.684;23.372;2022-11-21T06:11:00;93786.91;;;11.16;100.00
12626;BME280;6378;42.684;23.372;2022-11-21T06:13:26;93791.25;;;11.46;100.00
12626;BME280;6378;42.684;23.372;2022-11-21T06:18:18;93786.50;;;11.11;100.00
12626;BME280;6378;42.684;23.372;2022-11-21T06:20:44;93807.97;;;10.93;100.00
12626;BME280;6378;42.684;23.372;2022-11-21T06:23:10;93813.03;;;10.47;100.00
12626;BME280;6378;42.684;23.372;2022-11-21T06:25:36;93832.84;;;10.21;100.00
12626;BME280;6378;42.684;23.372;2022-11-21T06:28:01;93854.84;;;9.97;100.00
12626;BME280;6378;42.684;23.372;2022-11-21T06:30:27;93855.59;;;9.57;100.00
12626;BME280;6378;42.684;23.372;2022-11-21T06:32:52;93843.38;;;9.30;100.00
12626;BME280;6378;42.684;23.372;2022-11-21T06:35:18;93854.59;;;9.05;100.00
12626;BME280;6378;42.684;23.372;2022-11-21T06:37:43;93844.28;;;8.81;100.00
12626;BME280;6378;42.684;23.372;2022-11-21T06:40:09;93884.13;;;8.79;100.00
12626;BME280;6378;42.684;23.372;2022-11-21T06:42:35;93878.00;;;8.79;100.00
12626;BME280;6378;42.684;23.372;2022-11-21T06:45:00;93876.94;;;8.34;100.00
12626;BME280;6378;42.684;23.372;2022-11-21T06:47:25;93884.16;;;8.30;100.00
12626;BME280;6378;42.684;23.372;2022-11-21T06:49:51;93891.41;;;8.30;100.00
12626;BME280;6378;42.684;23.372;2022-11-21T06:52:16;93900.91;;;8.27;100.00
12626;BME280;6378;42.684;23.372;2022-11-21T06:54:42;93895.25;;;8.09;100.00
12626;BME280;6378;42.684;23.372;2022-11-21T06:57:07;93931.09;;;7.82;100.00
12626;BME280;6378;42.684;23.372;2022-11-21T06:59:32;93941.97;;;7.70;100.00
12626;BME280;6378;42.684;23.372;2022-11-21T07:01:58;93933.66;;;7.56;100.00
12626;BME280;6378;42.684;23.372;2022-11-21T07:04:24;93945.84;;;7.53;100.00
12626;BME280;6378;42.684;23.372;2022-11-21T07:06:49;93946.97;;;7.52;100.00
12626;BME280;6378;42.684;23.372;2022-11-21T07:09:15;93948.94;;;7.36;100.00
12626;BME280;6378;42.684;23.372;2022-11-21T07:11:40;93960.75;;;7.35;100.00
12626;BME280;6378;42.684;23.372;2022-11-21T07:14:05;93968.16;;;7.22;100.00
12626;BME280;6378;42.684;23.372;2022-11-21T07:16:32;93972.94;;;7.13;100.00
12626;BME280;6378;42.684;23.372;2022-11-21T07:18:58;93951.63;;;7.01;100.00
12626;BME280;6378;42.684;23.372;2022-11-21T07:21:24;93949.38;;;7.03;100.00
12626;BME280;6378;42.684;23.372;2022-11-21T07:23:50;93982.97;;;6.85;100.00
12626;BME280;6378;42.684;23.372;2022-11-21T07:26:15;93992.19;;;6.87;100.00
12626;BME280;6378;42.684;23.372;2022-11-21T07:28:41;94025.50;;;6.90;100.00
12626;BME280;6378;42.684;23.372;2022-11-21T07:31:08;94012.66;;;6.64;100.00
12626;BME280;6378;42.684;23.372;2022-11-21T07:33:33;94046.00;;;6.70;100.00
12626;BME280;6378;42.684;23.372;2022-11-21T07:35:59;94085.59;;;6.65;100.00
12626;BME280;6378;42.684;23.372;2022-11-21T07:38:24;94048.88;;;6.62;100.00
12626;BME280;6378;42.684;23.372;2022-11-21T07:40:50;94060.88;;;6.68;100.00
12626;BME280;6378;42.684;23.372;2022-11-21T07:43:16;94079.13;;;6.66;100.00
12626;BME280;6378;42.684;23.372;2022-11-21T07:45:41;94083.09;;;6.56;100.00
12626;BME280;6378;42.684;23.372;2022-11-21T07:48:08;94081.66;;;6.59;100.00
12626;BME280;6378;42.684;23.372;2022-11-21T07:50:33;94069.59;;;6.37;100.00
12626;BME280;6378;42.684;23.372;2022-11-21T07:53:01;94115.31;;;6.47;100.00
12626;BME280;6378;42.684;23.372;2022-11-21T07:55:26;94088.78;;;6.55;100.00
12626;BME280;6378;42.684;23.372;2022-11-21T07:58:08;94106.31;;;6.68;100.00
12626;BME280;6378;42.684;23.372;2022-11-21T08:00:36;94113.22;;;6.69;100.00
12626;BME280;6378;42.684;23.372;2022-11-21T08:03:05;94134.50;;;6.65;100.00
12626;BME280;6378;42.684;23.372;2022-11-21T08:05:35;94132.13;;;6.76;100.00
12626;BME280;6378;42.684;23.372;2022-11-21T08:08:00;94150.06;;;6.75;100.00
12626;BME280;6378;42.684;23.372;2022-11-21T08:10:26;94140.63;;;6.66;100.00
12626;BME280;6378;42.684;23.372;2022-11-21T08:12:51;94147.28;;;6.72;100.00
12626;BME280;6378;42.684;23.372;2022-11-21T08:15:17;94144.31;;;6.61;100.00
12626;BME280;6378;42.684;23.372;2022-11-21T08:17:42;94144.72;;;6.47;100.00
12626;BME280;6378;42.684;23.372;2022-11-21T08:20:08;94141.53;;;6.42;100.00
12626;BME280;6378;42.684;23.372;2022-11-21T08:22:40;94149.94;;;6.28;100.00
12626;BME280;6378;42.684;23.372;2022-11-21T08:25:07;94151.81;;;6.28;100.00
12626;BME280;6378;42.684;23.372;2022-11-21T08:27:33;94149.59;;;6.30;100.00
12626;BME280;6378;42.684;23.372;2022-11-21T08:29:59;94157.88;;;6.40;100.00
12626;BME280;6378;42.684;23.372;2022-11-21T08:32:24;94140.59;;;6.22;100.00
12626;BME280;6378;42.684;23.372;2022-11-21T08:34:49;94147.84;;;6.49;100.00
12626;BME280;6378;42.684;23.372;2022-11-21T08:37:15;94159.59;;;6.61;100.00
12626;BME280;6378;42.684;23.372;2022-11-21T08:39:40;94163.56;;;6.67;100.00
12626;BME280;6378;42.684;23.372;2022-11-21T08:42:06;94170.25;;;6.73;100.00
12626;BME280;6378;42.684;23.372;2022-11-21T08:44:32;94164.19;;;6.76;100.00
12626;BME280;6378;42.684;23.372;2022-11-21T08:46:59;94132.06;;;6.60;100.00
12626;BME280;6378;42.684;23.372;2022-11-21T08:49:24;94146.91;;;6.58;100.00
12626;BME280;6378;42.684;23.372;2022-11-21T08:51:50;94167.38;;;6.66;100.00
12626;BME280;6378;42.684;23.372;2022-11-21T08:54:16;94131.56;;;6.55;100.00
12626;BME280;6378;42.684;23.372;2022-11-21T08:56:42;94158.22;;;6.67;100.00
12626;BME280;6378;42.684;23.372;2022-11-21T08:59:08;94161.25;;;6.65;100.00
12626;BME280;6378;42.684;23.372;2022-11-21T09:01:34;94164.91;;;6.73;100.00
12626;BME280;6378;42.684;23.372;2022-11-21T09:03:59;94170.78;;;6.78;100.00
12626;BME280;6378;42.684;23.372;2022-11-21T09:06:25;94164.69;;;6.93;100.00
12626;BME280;6378;42.684;23.372;2022-11-21T09:08:50;94159.59;;;6.88;100.00
12626;BME280;6378;42.684;23.372;2022-11-21T09:11:16;94167.78;;;6.95;100.00
12626;BME280;6378;42.684;23.372;2022-11-21T09:13:41;94166.66;;;6.96;100.00
12626;BME280;6378;42.684;23.372;2022-11-21T09:16:10;94164.50;;;6.86;100.00
12626;BME280;6378;42.684;23.372;2022-11-21T09:18:54;94147.91;;;6.81;100.00
12626;BME280;6378;42.684;23.372;2022-11-21T09:21:19;94150.16;;;6.79;100.00
12626;BME280;6378;42.684;23.372;2022-11-21T09:23:46;94140.59;;;6.78;100.00
12626;BME280;6378;42.684;23.372;2022-11-21T09:26:12;94159.31;;;6.78;100.00
12626;BME280;6378;42.684;23.372;2022-11-21T09:28:39;94148.16;;;6.76;100.00
12626;BME280;6378;42.684;23.372;2022-11-21T09:31:06;94141.94;;;6.72;100.00
12626;BME280;6378;42.684;23.372;2022-11-21T09:33:31;94115.09;;;6.52;100.00
12626;BME280;6378;42.684;23.372;2022-11-21T09:35:58;94150.28;;;6.70;100.00
12626;BME280;6378;42.684;23.372;2022-11-21T09:38:24;94154.13;;;6.85;100.00
12626;BME280;6378;42.684;23.372;2022-11-21T09:40:51;94155.25;;;6.84;100.00
12626;BME280;6378;42.684;23.372;2022-11-21T09:46:23;94155.19;;;6.96;100.00
12626;BME280;6378;42.684;23.372;2022-11-21T09:48:56;94147.31;;;6.87;100.00
12626;BME280;6378;42.684;23.372;2022-11-21T09:51:24;94143.44;;;7.01;100.00
12626;BME280;6378;42.684;23.372;2022-11-21T09:56:16;94158.81;;;7.19;100.00
12626;BME280;6378;42.684;23.372;2022-11-21T09:59:33;94153.72;;;7.14;100.00
12626;BME280;6378;42.684;23.372;2022-11-21T10:01:59;94157.97;;;7.15;100.00
12626;BME280;6378;42.684;23.372;2022-11-21T10:04:26;94170.94;;;7.13;100.00
12626;BME280;6378;42.684;23.372;2022-11-21T10:07:04;94177.38;;;7.12;100.00
12626;BME280;6378;42.684;23.372;2022-11-21T10:10:02;94183.25;;;7.02;100.00
12626;BME280;6378;42.684;23.372;2022-11-21T10:15:55;94204.28;;;6.88;100.00
12626;BME280;6378;42.684;23.372;2022-11-21T10:32:10;94183.72;;;6.48;100.00
12626;BME280;6378;42.684;23.372;2022-11-21T10:34:39;94207.22;;;6.71;100.00
12626;BME280;6378;42.684;23.372;2022-11-21T10:37:18;94216.50;;;6.61;100.00
12626;BME280;6378;42.684;23.372;2022-11-21T10:39:52;94200.28;;;6.54;100.00
12626;BME280;6378;42.684;23.372;2022-11-21T10:42:35;94210.94;;;6.66;100.00
12626;BME280;6378;42.684;23.372;2022-11-21T10:45:03;94186.03;;;6.50;100.00
12626;BME280;6378;42.684;23.372;2022-11-21T10:47:42;94191.44;;;6.66;100.00
12626;BME280;6378;42.684;23.372;2022-11-21T10:56:08;94167.81;;;6.68;100.00
12626;BME280;6378;42.684;23.372;2022-11-21T10:58:42;94186.38;;;6.76;100.00
12626;BME280;6378;42.684;23.372;2022-11-21T11:04:16;94200.19;;;6.78;100.00
12626;BME280;6378;42.684;23.372;2022-11-21T11:06:44;94209.38;;;6.93;100.00
12626;BME280;6378;42.684;23.372;2022-11-21T11:09:30;94197.13;;;6.92;100.00
12626;BME280;6378;42.684;23.372;2022-11-21T11:14:52;94134.88;;;6.64;100.00
12626;BME280;6378;42.684;23.372;2022-11-21T11:17:27;94208.69;;;6.96;100.00
12626;BME280;6378;42.684;23.372;2022-11-21T11:20:27;94213.44;;;7.03;100.00
12626;BME280;6378;42.684;23.372;2022-11-21T11:22:52;94211.09;;;7.01;100.00
12626;BME280;6378;42.684;23.372;2022-11-21T11:25:17;94205.59;;;7.10;100.00
12626;BME280;6378;42.684;23.372;2022-11-21T11:27:42;94193.69;;;7.07;100.00
12626;BME280;6378;42.684;23.372;2022-11-21T11:30:14;94199.53;;;6.97;100.00
12626;BME280;6378;42.684;23.372;2022-11-21T11:32:41;94192.72;;;6.84;100.00
12626;BME280;6378;42.684;23.372;2022-11-21T11:37:42;94191.00;;;6.91;100.00
12626;BME280;6378;42.684;23.372;2022-11-21T11:48:38;94178.09;;;7.25;100.00
12626;BME280;6378;42.684;23.372;2022-11-21T11:51:31;94187.44;;;7.47;100.00
12626;BME280;6378;42.684;23.372;2022-11-21T11:53:58;94191.53;;;9.45;100.00
12626;BME280;6378;42.684;23.372;2022-11-21T11:56:30;94204.50;;;9.62;100.00
12626;BME280;6378;42.684;23.372;2022-11-21T11:58:59;94196.47;;;9.88;100.00
12626;BME280;6378;42.684;23.372;2022-11-21T12:01:41;94173.38;;;10.10;100.00
12626;BME280;6378;42.684;23.372;2022-11-21T12:04:13;94135.31;;;8.87;100.00
12626;BME280;6378;42.684;23.372;2022-11-21T12:06:48;94170.91;;;8.84;100.00
12626;BME280;6378;42.684;23.372;2022-11-21T12:09:19;94166.41;;;8.50;100.00
12626;BME280;6378;42.684;23.372;2022-11-21T12:14:50;94165.84;;;8.06;100.00
12626;BME280;6378;42.684;23.372;2022-11-21T12:20:23;94173.69;;;7.99;100.00
12626;BME280;6378;42.684;23.372;2022-11-21T12:22:51;94171.09;;;8.02;100.00
12626;BME280;6378;42.684;23.372;2022-11-21T12:25:20;94182.53;;;7.83;100.00
12626;BME280;6378;42.684;23.372;2022-11-21T12:27:51;94171.41;;;7.81;100.00
12626;BME280;6378;42.684;23.372;2022-11-21T12:38:45;94193.06;;;7.92;100.00
12626;BME280;6378;42.684;23.372;2022-11-21T12:41:28;94193.28;;;7.68;100.00
12626;BME280;6378;42.684;23.372;2022-11-21T12:50:01;94200.59;;;7.08;100.00
12626;BME280;6378;42.684;23.372;2022-11-21T12:52:58;94195.69;;;7.10;100.00
12626;BME280;6378;42.684;23.372;2022-11-21T12:55:47;94202.25;;;7.13;100.00
12626;BME280;6378;42.684;23.372;2022-11-21T12:58:35;94200.78;;;7.15;100.00
12626;BME280;6378;42.684;23.372;2022-11-21T13:01:23;94199.31;;;7.18;100.00
12626;BME280;6378;42.684;23.372;2022-11-21T13:04:01;94209.06;;;7.10;100.00
12626;BME280;6378;42.684;23.372;2022-11-21T13:06:37;94192.63;;;6.96;100.00
12626;BME280;6378;42.684;23.372;2022-11-21T13:09:07;94191.59;;;7.01;100.00
12626;BME280;6378;42.684;23.372;2022-11-21T13:11:52;94192.88;;;6.91;100.00
12626;BME280;6378;42.684;23.372;2022-11-21T13:25:09;94229.69;;;7.10;100.00
12626;BME280;6378;42.684;23.372;2022-11-21T13:27:39;94211.06;;;7.13;100.00
12626;BME280;6378;42.684;23.372;2022-11-21T13:32:47;94226.41;;;7.16;100.00
12626;BME280;6378;42.684;23.372;2022-11-21T13:43:24;94228.94;;;7.25;100.00
12626;BME280;6378;42.684;23.372;2022-11-21T13:45:51;94223.75;;;7.16;100.00
12626;BME280;6378;42.684;23.372;2022-11-21T14:07:34;94234.94;;;7.06;100.00
12626;BME280;6378;42.684;23.372;2022-11-21T14:10:03;94227.38;;;7.08;100.00
12626;BME280;6378;42.684;23.372;2022-11-21T14:12:35;94214.72;;;6.93;100.00
12626;BME280;6378;42.684;23.372;2022-11-21T14:17:55;94206.09;;;6.84;100.00
12626;BME280;6378;42.684;23.372;2022-11-21T14:20:30;94210.97;;;6.82;100.00
12626;BME280;6378;42.684;23.372;2022-11-21T14:23:03;94213.91;;;6.77;100.00
12626;BME280;6378;42.684;23.372;2022-11-21T14:25:41;94226.00;;;6.86;100.00
12626;BME280;6378;42.684;23.372;2022-11-21T14:28:23;94235.19;;;6.73;100.00
12626;BME280;6378;42.684;23.372;2022-11-21T14:30:59;94227.19;;;6.73;100.00
12626;BME280;6378;42.684;23.372;2022-11-21T14:38:29;94243.38;;;6.92;100.00
12626;BME280;6378;42.684;23.372;2022-11-21T14:41:34;94232.59;;;6.89;100.00
12626;BME280;6378;42.684;23.372;2022-11-21T14:46:32;94218.50;;;6.92;100.00
12626;BME280;6378;42.684;23.372;2022-11-21T14:51:35;94217.78;;;6.79;100.00
12626;BME280;6378;42.684;23.372;2022-11-21T14:54:22;94254.03;;;7.20;100.00
12626;BME280;6378;42.684;23.372;2022-11-21T14:57:06;94253.56;;;7.46;100.00
12626;BME280;6378;42.684;23.372;2022-11-21T14:59:38;94243.53;;;7.27;100.00
12626;BME280;6378;42.684;23.372;2022-11-21T15:02:33;94237.41;;;6.99;100.00
12626;BME280;6378;42.684;23.372;2022-11-21T15:05:05;94235.06;;;6.82;100.00
12626;BME280;6378;42.684;23.372;2022-11-21T15:07:39;94254.31;;;6.87;100.00